Time;durP1;ratioP1;P1;durP2;ratioP2;P2;SDS_P1;SDS_P2;PMS_P1;PMS_P2;Temp;Humidity;BMP_temperature;BMP_pressure;BME280_temperature;BME280_humidity;BME280_pressure;Samples;Min_cycle;Max_cycle;Signal;HPM_P1;HPM_P2
2020/12/21 00:01:14;;;;;;;37.58;10.95;;;6.90;99.90;;;;;;5060058;28;20051;-85
2020/12/21 00:03:39;;;;;;;34.60;11.40;;;6.90;99.90;;;;;;5053040;28;20400;-86
2020/12/21 00:06:18;;;;;;;33.42;10.30;;;6.90;99.90;;;;;;5061208;28;20111;-86
2020/12/21 00:08:43;;;;;;;27.13;10.77;;;6.90;99.90;;;;;;5060295;28;20538;-86
2020/12/21 00:11:09;;;;;;;30.50;9.38;;;6.90;99.90;;;;;;5060698;28;20036;-82
2020/12/21 00:13:42;;;;;;;24.70;9.40;;;6.90;99.90;;;;;;5056420;28;20054;-82
2020/12/21 00:16:10;;;;;;;36.00;9.40;;;6.90;99.90;;;;;;5073182;28;20024;-83
2020/12/21 00:18:35;;;;;;;38.17;9.70;;;6.90;99.90;;;;;;5055154;28;20123;-83
2020/12/21 00:21:01;;;;;;;38.25;10.20;;;6.90;99.90;;;;;;5055054;28;20059;-83
2020/12/21 00:23:26;;;;;;;22.75;8.85;;;6.90;99.90;;;;;;5055450;28;20036;-82
2020/12/21 00:25:52;;;;;;;30.45;8.68;;;6.90;99.90;;;;;;5065136;28;20036;-84
2020/12/21 00:28:17;;;;;;;31.65;9.02;;;7.00;99.90;;;;;;5072278;28;20081;-84
2020/12/21 00:30:43;;;;;;;29.75;8.70;;;7.00;99.90;;;;;;5051234;28;20393;-83
2020/12/21 00:33:09;;;;;;;30.52;7.82;;;7.10;99.90;;;;;;5039061;28;20037;-83
2020/12/21 00:35:34;;;;;;;25.25;7.53;;;7.10;99.90;;;;;;5042099;28;20522;-83
2020/12/21 00:38:00;;;;;;;18.05;7.32;;;7.20;99.90;;;;;;5035430;28;20052;-83
2020/12/21 00:40:28;;;;;;;38.97;7.93;;;7.20;99.90;;;;;;5036800;28;20029;-83
2020/12/21 00:42:53;;;;;;;23.75;6.93;;;7.20;99.90;;;;;;5049185;28;21800;-83
2020/12/21 00:45:19;;;;;;;26.67;7.90;;;7.30;99.90;;;;;;5031814;28;20025;-83
2020/12/21 00:47:45;;;;;;;29.65;7.13;;;7.30;99.90;;;;;;5039221;28;20032;-83
2020/12/21 00:50:11;;;;;;;31.02;7.95;;;7.30;99.90;;;;;;5042152;28;20029;-82
2020/12/21 00:52:36;;;;;;;23.05;7.13;;;7.30;99.90;;;;;;5034229;28;20033;-84
2020/12/21 00:55:03;;;;;;;30.90;7.25;;;7.30;99.90;;;;;;5058550;28;20377;-82
2020/12/21 00:57:33;;;;;;;31.10;6.78;;;7.30;99.90;;;;;;5043231;28;20033;-83
2020/12/21 00:59:59;;;;;;;27.40;6.95;;;7.30;99.90;;;;;;5028677;28;20051;-83
2020/12/21 01:02:24;;;;;;;32.28;6.65;;;7.30;99.90;;;;;;5043185;28;20033;-83
2020/12/21 01:04:50;;;;;;;26.35;6.18;;;7.20;99.90;;;;;;5041132;28;20071;-83
2020/12/21 01:07:15;;;;;;;21.63;6.47;;;7.20;99.90;;;;;;5034318;28;20477;-83
2020/12/21 01:09:46;;;;;;;24.85;6.28;;;7.30;99.90;;;;;;5033748;28;20029;-83
2020/12/21 01:12:14;;;;;;;16.85;6.28;;;7.30;99.90;;;;;;5046697;28;20509;-83
2020/12/21 01:14:40;;;;;;;25.35;6.22;;;7.30;99.90;;;;;;5038351;28;20021;-82
2020/12/21 01:17:07;;;;;;;28.23;6.50;;;7.30;99.90;;;;;;5038833;28;20032;-83
2020/12/21 01:19:32;;;;;;;27.42;8.02;;;7.30;99.90;;;;;;5042113;28;20048;-83
2020/12/21 01:21:58;;;;;;;27.13;5.95;;;7.30;99.90;;;;;;5038214;28;20358;-83
2020/12/21 01:24:23;;;;;;;27.17;6.40;;;7.40;99.90;;;;;;5041924;28;20052;-83
2020/12/21 01:26:49;;;;;;;27.17;5.35;;;7.40;99.90;;;;;;5040062;28;20037;-82
2020/12/21 01:29:15;;;;;;;24.23;6.10;;;7.30;99.90;;;;;;5041178;28;20027;-83
2020/12/21 01:31:40;;;;;;;23.20;5.72;;;7.30;99.90;;;;;;5066929;28;20059;-83
2020/12/21 01:34:06;;;;;;;28.65;6.90;;;7.40;99.90;;;;;;5054047;28;20474;-84
2020/12/21 01:36:31;;;;;;;33.45;6.25;;;7.30;99.90;;;;;;5071396;28;20028;-84
2020/12/21 01:38:57;;;;;;;23.10;6.10;;;7.40;99.90;;;;;;5070673;28;20063;-83
2020/12/21 01:41:23;;;;;;;29.85;5.28;;;7.40;99.90;;;;;;5060097;28;20404;-84
2020/12/21 01:43:53;;;;;;;17.33;5.43;;;7.40;99.90;;;;;;5055516;28;20114;-84
2020/12/21 01:46:19;;;;;;;29.35;6.22;;;7.40;99.90;;;;;;5052935;28;20021;-83
2020/12/21 01:48:45;;;;;;;21.52;6.30;;;7.30;99.90;;;;;;5071417;28;20381;-83
2020/12/21 01:51:22;;;;;;;27.23;7.00;;;7.30;99.90;;;;;;5053767;28;20032;-83
2020/12/21 01:53:49;;;;;;;31.80;5.88;;;7.30;99.90;;;;;;5054584;28;20059;-83
2020/12/21 01:56:16;;;;;;;25.55;6.10;;;7.30;99.90;;;;;;5059002;28;20032;-83
2020/12/21 01:58:43;;;;;;;19.73;6.57;;;7.30;99.90;;;;;;5066829;28;20035;-83
2020/12/21 02:01:12;;;;;;;16.33;6.03;;;7.30;99.90;;;;;;5078546;28;20032;-82
2020/12/21 02:03:39;;;;;;;21.50;6.53;;;7.20;99.90;;;;;;5053936;28;20035;-81
2020/12/21 02:06:05;;;;;;;25.77;6.28;;;7.10;99.90;;;;;;5070864;28;20032;-82
2020/12/21 02:08:30;;;;;;;24.60;6.22;;;7.10;99.90;;;;;;5052427;28;20583;-82
2020/12/21 02:10:56;;;;;;;24.77;6.40;;;7.10;99.90;;;;;;5063073;28;20028;-82
2020/12/21 02:13:22;;;;;;;29.02;7.40;;;7.10;99.90;;;;;;5051974;28;20482;-82
2020/12/21 02:15:47;;;;;;;28.25;6.97;;;7.10;99.90;;;;;;5051343;28;20024;-82
2020/12/21 02:18:13;;;;;;;21.52;5.63;;;7.10;99.90;;;;;;5058954;28;20038;-82
2020/12/21 02:20:39;;;;;;;28.55;6.97;;;7.00;99.90;;;;;;5052421;28;20415;-83
2020/12/21 02:23:04;;;;;;;23.02;7.07;;;7.00;99.90;;;;;;5056957;28;20444;-83
2020/12/21 02:25:30;;;;;;;35.10;7.63;;;7.00;99.90;;;;;;5051918;28;20032;-82
2020/12/21 02:27:55;;;;;;;27.48;6.88;;;7.00;99.90;;;;;;5047111;28;20029;-81
2020/12/21 02:30:21;;;;;;;34.13;8.75;;;7.00;99.90;;;;;;5055729;28;20024;-83
2020/12/21 02:32:47;;;;;;;28.23;6.85;;;7.00;99.90;;;;;;5049444;28;20448;-82
2020/12/21 02:35:12;;;;;;;35.05;7.93;;;7.00;99.90;;;;;;5051385;28;20025;-82
2020/12/21 02:37:38;;;;;;;21.05;6.65;;;7.00;99.90;;;;;;5051224;28;20092;-82
2020/12/21 02:40:06;;;;;;;33.03;6.10;;;6.90;99.90;;;;;;5052440;28;20025;-82
2020/12/21 02:42:31;;;;;;;26.17;7.63;;;6.90;99.90;;;;;;5052107;28;20024;-82
2020/12/21 02:44:57;;;;;;;26.65;7.88;;;6.90;99.90;;;;;;5051033;28;20489;-83
2020/12/21 02:47:23;;;;;;;36.58;8.30;;;6.90;99.90;;;;;;5055390;28;20482;-84
2020/12/21 02:49:48;;;;;;;33.67;8.15;;;6.90;99.90;;;;;;5050359;28;20029;-83
2020/12/21 02:52:15;;;;;;;32.17;7.00;;;6.90;99.90;;;;;;5056663;28;20037;-83
2020/12/21 02:54:42;;;;;;;37.72;8.55;;;6.80;99.90;;;;;;5065859;28;20075;-83
2020/12/21 02:57:07;;;;;;;28.83;8.57;;;6.70;99.90;;;;;;5049495;28;20032;-83
2020/12/21 02:59:33;;;;;;;32.80;8.13;;;6.70;99.90;;;;;;5052458;28;20033;-83
2020/12/21 03:01:58;;;;;;;29.95;8.38;;;6.70;99.90;;;;;;5048298;28;20544;-83
2020/12/21 03:04:24;;;;;;;29.80;8.70;;;6.70;99.90;;;;;;5049719;28;20363;-83
2020/12/21 03:06:49;;;;;;;30.65;7.93;;;6.70;99.90;;;;;;5048739;28;20032;-83
2020/12/21 03:09:15;;;;;;;21.73;8.75;;;6.70;99.90;;;;;;5047658;28;20031;-83
2020/12/21 03:11:44;;;;;;;34.65;8.15;;;6.80;99.90;;;;;;5047395;28;20033;-82
2020/12/21 03:14:10;;;;;;;33.13;8.13;;;6.80;99.90;;;;;;5048223;28;20029;-81
2020/12/21 03:16:36;;;;;;;34.42;8.98;;;6.70;99.90;;;;;;5050628;28;20539;-81
2020/12/21 03:19:01;;;;;;;28.60;9.75;;;6.70;99.90;;;;;;5053196;28;20063;-82
2020/12/21 03:21:27;;;;;;;36.63;9.35;;;6.70;99.90;;;;;;5048053;28;20497;-81
2020/12/21 03:23:52;;;;;;;44.30;9.63;;;6.70;99.90;;;;;;5048601;28;20398;-81
2020/12/21 03:26:18;;;;;;;35.13;8.85;;;6.70;99.90;;;;;;5047800;28;20441;-81
2020/12/21 03:28:43;;;;;;;31.85;9.88;;;6.60;99.90;;;;;;5048787;28;20024;-81
2020/12/21 03:31:09;;;;;;;28.63;9.57;;;6.60;99.90;;;;;;5047792;28;20052;-81
2020/12/21 03:33:34;;;;;;;24.63;9.13;;;6.60;99.90;;;;;;5055215;28;20600;-81
2020/12/21 03:36:00;;;;;;;29.48;9.90;;;6.60;99.90;;;;;;5055930;28;20028;-82
2020/12/21 03:38:26;;;;;;;47.28;10.90;;;6.60;99.90;;;;;;5050010;28;20029;-82
2020/12/21 03:40:51;;;;;;;49.85;10.70;;;6.60;99.90;;;;;;5048024;28;20501;-82
2020/12/21 03:43:19;;;;;;;38.67;10.32;;;6.60;99.90;;;;;;5051229;28;20032;-82
2020/12/21 03:45:46;;;;;;;30.75;10.68;;;6.60;99.90;;;;;;5046011;28;20108;-82
2020/12/21 03:48:13;;;;;;;30.17;10.88;;;6.60;99.90;;;;;;5060359;28;20095;-80
2020/12/21 03:50:39;;;;;;;37.80;10.38;;;6.70;99.90;;;;;;5055808;28;20120;-81
2020/12/21 03:53:04;;;;;;;48.92;10.75;;;6.70;99.90;;;;;;5039945;28;20132;-81
2020/12/21 03:55:30;;;;;;;36.95;10.10;;;6.70;99.90;;;;;;5048562;28;20044;-81
2020/12/21 03:57:55;;;;;;;28.95;10.63;;;6.70;99.90;;;;;;5050777;28;20028;-81
2020/12/21 04:00:21;;;;;;;32.08;10.57;;;6.70;99.90;;;;;;5051612;28;20025;-82
2020/12/21 04:02:46;;;;;;;36.53;11.07;;;6.80;99.90;;;;;;5050537;28;20059;-82
2020/12/21 04:05:12;;;;;;;41.10;11.43;;;6.80;99.90;;;;;;5048735;28;20032;-81
2020/12/21 04:07:38;;;;;;;52.13;11.75;;;6.80;99.90;;;;;;5045895;28;20036;-83
2020/12/21 04:10:05;;;;;;;32.03;10.85;;;6.80;99.90;;;;;;5060354;28;20504;-81
2020/12/21 04:12:30;;;;;;;30.33;11.23;;;6.80;99.90;;;;;;5066070;28;20041;-81
2020/12/21 04:14:56;;;;;;;31.90;10.68;;;6.90;99.90;;;;;;5048399;28;20534;-81
2020/12/21 04:17:21;;;;;;;37.00;13.05;;;6.90;99.90;;;;;;5052919;28;20536;-81
2020/12/21 04:19:47;;;;;;;36.30;11.82;;;6.90;99.90;;;;;;5049594;28;20021;-81
2020/12/21 04:22:12;;;;;;;42.53;13.15;;;6.90;99.90;;;;;;5047714;28;20070;-81
2020/12/21 04:24:39;;;;;;;31.00;11.40;;;6.90;99.90;;;;;;5039201;28;20091;-82
2020/12/21 04:27:05;;;;;;;28.10;10.75;;;6.90;99.90;;;;;;5055247;28;20024;-82
2020/12/21 04:29:30;;;;;;;47.88;12.90;;;6.90;99.90;;;;;;5044996;28;20111;-81
2020/12/21 04:31:56;;;;;;;34.58;10.52;;;6.90;99.90;;;;;;5052338;28;20048;-82
2020/12/21 04:34:25;;;;;;;39.20;13.90;;;6.90;99.90;;;;;;5047525;28;20032;-82
2020/12/21 04:36:52;;;;;;;42.08;12.40;;;6.90;99.90;;;;;;5049187;28;20037;-81
2020/12/21 04:39:21;;;;;;;38.30;11.70;;;7.00;99.90;;;;;;5056113;28;20426;-82
2020/12/21 04:41:59;;;;;;;30.70;12.50;;;7.00;99.90;;;;;;5054276;28;20024;-81
2020/12/21 04:44:26;;;;;;;33.83;12.30;;;7.10;99.90;;;;;;5046717;28;20035;-81
2020/12/21 04:46:58;;;;;;;45.53;11.25;;;7.10;99.90;;;;;;5058462;28;20040;-81
2020/12/21 04:49:24;;;;;;;;;;;7.10;99.90;;;;;;5049246;28;20076;-81
2020/12/21 04:51:50;;;;;;;39.10;11.40;;;7.20;99.90;;;;;;5052229;28;19916;-82
2020/12/21 04:54:21;;;;;;;39.63;12.18;;;7.20;99.90;;;;;;5055552;28;20052;-81
2020/12/21 04:56:47;;;;;;;32.95;11.68;;;7.20;99.90;;;;;;5050198;28;20150;-82
2020/12/21 04:59:14;;;;;;;38.38;11.50;;;7.20;99.90;;;;;;5054904;28;20025;-82
2020/12/21 05:01:41;;;;;;;40.88;12.50;;;7.20;99.90;;;;;;5052721;28;20376;-82
2020/12/21 05:04:07;;;;;;;32.13;11.30;;;7.20;99.90;;;;;;5055134;28;20098;-82
2020/12/21 05:06:34;;;;;;;31.60;12.80;;;7.20;99.90;;;;;;5067116;28;20469;-82
2020/12/21 05:09:08;;;;;;;41.53;12.40;;;7.10;99.90;;;;;;5072741;28;20025;-81
2020/12/21 05:11:35;;;;;;;40.00;11.10;;;7.10;99.90;;;;;;5070372;28;20041;-81
2020/12/21 05:14:09;;;;;;;35.55;12.18;;;7.10;99.90;;;;;;5076353;28;20009;-81
2020/12/21 05:16:35;;;;;;;33.17;11.32;;;7.10;99.90;;;;;;5086828;28;20038;-81
2020/12/21 05:19:01;;;;;;;42.88;11.82;;;7.10;99.90;;;;;;5077013;28;20040;-82
2020/12/21 05:21:28;;;;;;;42.97;13.35;;;7.00;99.90;;;;;;5032203;28;20154;-82
2020/12/21 05:24:01;;;;;;;32.05;11.63;;;7.10;99.90;;;;;;5029498;28;20057;-81
2020/12/21 05:26:33;;;;;;;54.33;12.40;;;7.00;99.90;;;;;;5028324;28;20582;-81
2020/12/21 05:29:02;;;;;;;31.48;12.63;;;7.00;99.90;;;;;;5010480;28;20030;-81
2020/12/21 05:31:30;;;;;;;48.65;13.32;;;7.00;99.90;;;;;;5006536;28;20041;-82
2020/12/21 05:33:56;;;;;;;33.13;11.85;;;7.00;99.90;;;;;;4991871;28;20031;-81
2020/12/21 05:36:23;;;;;;;52.88;12.40;;;7.00;99.90;;;;;;5003380;28;20555;-81
2020/12/21 05:38:59;;;;;;;48.60;11.20;;;6.90;99.90;;;;;;5005996;28;20439;-81
2020/12/21 05:41:25;;;;;;;36.75;11.20;;;6.90;99.90;;;;;;5006202;28;20034;-81
2020/12/21 05:43:52;;;;;;;41.00;11.73;;;6.90;99.90;;;;;;4987548;28;20053;-82
2020/12/21 05:46:24;;;;;;;43.75;12.02;;;6.90;99.90;;;;;;4982243;28;20388;-82
2020/12/21 05:48:55;;;;;;;40.95;11.23;;;6.90;99.90;;;;;;5008559;28;20022;-81
2020/12/21 05:51:25;;;;;;;44.00;12.43;;;6.80;99.90;;;;;;4993497;28;20437;-81
2020/12/21 05:53:53;;;;;;;45.35;11.63;;;6.80;99.90;;;;;;5041965;28;20029;-81
2020/12/21 05:56:20;;;;;;;35.25;12.98;;;6.80;99.90;;;;;;5031453;28;20026;-81
2020/12/21 05:58:48;;;;;;;34.70;11.23;;;6.80;99.90;;;;;;5028165;28;20037;-81
2020/12/21 06:01:14;;;;;;;45.08;12.57;;;6.70;99.90;;;;;;5049481;28;20524;-81
2020/12/21 06:03:41;;;;;;;49.20;13.30;;;6.70;99.90;;;;;;5049912;28;20121;-81
2020/12/21 06:06:12;;;;;;;44.97;10.57;;;6.70;99.90;;;;;;5052106;28;20021;-81
2020/12/21 06:08:39;;;;;;;47.65;12.88;;;6.60;99.90;;;;;;5056990;28;20052;-81
2020/12/21 06:11:25;;;;;;;45.10;12.02;;;6.60;99.90;;;;;;5031545;28;20044;-81
2020/12/21 06:14:15;;;;;;;38.45;12.13;;;6.60;99.90;;;;;;5060639;28;20037;-80
2020/12/21 06:16:42;;;;;;;42.33;12.35;;;6.50;99.90;;;;;;5052566;28;20021;-80
2020/12/21 06:19:23;;;;;;;53.47;12.02;;;6.50;99.90;;;;;;5047477;28;20040;-80
2020/12/21 06:21:51;;;;;;;;;;;6.50;99.90;;;;;;4997061;28;20030;-80
2020/12/21 06:24:26;;;;;;;49.80;14.95;;;6.40;99.90;;;;;;5014475;28;19909;-80
2020/12/21 06:26:53;;;;;;;40.42;13.07;;;6.40;99.90;;;;;;5011437;28;20045;-81
2020/12/21 06:29:29;;;;;;;50.92;13.20;;;6.40;99.90;;;;;;5010311;28;20064;-81
2020/12/21 06:32:02;;;;;;;33.28;12.18;;;6.30;99.90;;;;;;4964095;28;20427;-81
2020/12/21 06:34:28;;;;;;;54.40;15.13;;;6.30;99.90;;;;;;4942533;28;20039;-81
2020/12/21 06:37:19;;;;;;;38.88;13.00;;;6.30;99.90;;;;;;4973209;28;20411;-80
2020/12/21 06:39:57;;;;;;;50.83;14.20;;;6.30;99.90;;;;;;4978093;28;20037;-80
2020/12/21 06:42:24;;;;;;;49.50;13.43;;;6.30;99.90;;;;;;4975715;28;20037;-81
2020/12/21 06:44:54;;;;;;;41.28;14.60;;;6.20;99.90;;;;;;4972086;28;20046;-82
2020/12/21 06:47:22;;;;;;;58.17;13.50;;;6.20;99.90;;;;;;4960112;28;20472;-81
2020/12/21 06:49:48;;;;;;;43.80;14.13;;;6.20;99.90;;;;;;4962658;28;20034;-80
2020/12/21 06:52:13;;;;;;;37.33;13.07;;;6.20;99.90;;;;;;4986128;28;20129;-81
2020/12/21 06:54:39;;;;;;;43.25;13.02;;;6.20;99.90;;;;;;5015029;28;20202;-80
2020/12/21 06:57:06;;;;;;;41.80;13.50;;;6.20;99.90;;;;;;5010061;28;20415;-80
2020/12/21 06:59:33;;;;;;;57.90;13.30;;;6.10;99.90;;;;;;5012308;28;20026;-81
2020/12/21 07:01:58;;;;;;;57.53;15.05;;;6.20;99.90;;;;;;4973807;28;20566;-81
2020/12/21 07:04:28;;;;;;;53.80;14.73;;;6.10;99.90;;;;;;5015490;28;20029;-81
2020/12/21 07:06:54;;;;;;;53.88;14.82;;;6.10;99.90;;;;;;4995663;28;20069;-81
2020/12/21 07:09:28;;;;;;;46.30;14.20;;;6.00;99.90;;;;;;4997108;28;20061;-81
2020/12/21 07:11:56;;;;;;;39.72;13.80;;;6.10;99.90;;;;;;5017687;28;20132;-81
2020/12/21 07:14:24;;;;;;;42.53;13.80;;;6.10;99.90;;;;;;5004821;28;20426;-81
2020/12/21 07:17:00;;;;;;;43.17;16.23;;;6.00;99.90;;;;;;5051502;28;20120;-81
2020/12/21 07:19:26;;;;;;;53.78;16.17;;;6.00;99.90;;;;;;5051734;28;20032;-82
2020/12/21 07:21:54;;;;;;;44.60;12.95;;;6.00;99.90;;;;;;5072665;28;20136;-82
2020/12/21 07:24:24;;;;;;;41.65;13.07;;;6.00;99.90;;;;;;5084377;28;20077;-81
2020/12/21 07:26:53;;;;;;;52.88;14.85;;;6.00;99.90;;;;;;5054318;28;20025;-82
2020/12/21 07:29:20;;;;;;;40.05;13.25;;;6.00;99.90;;;;;;5056692;28;20040;-81
2020/12/21 07:31:46;;;;;;;36.92;13.18;;;6.00;99.90;;;;;;5072413;28;20056;-81
2020/12/21 07:34:11;;;;;;;34.85;12.13;;;6.00;99.90;;;;;;5064225;28;20055;-81
2020/12/21 07:36:38;;;;;;;43.47;14.00;;;6.00;99.90;;;;;;5073218;28;20025;-81
2020/12/21 07:39:12;;;;;;;37.85;13.05;;;6.00;99.90;;;;;;5076121;28;20108;-81
2020/12/21 07:41:42;;;;;;;37.65;12.45;;;6.00;99.90;;;;;;5051419;28;20142;-81
2020/12/21 07:44:14;;;;;;;34.80;12.57;;;5.90;99.90;;;;;;5044266;28;20890;-80
2020/12/21 07:47:01;;;;;;;46.90;13.73;;;5.90;99.90;;;;;;5017291;28;20115;-81
2020/12/21 07:49:31;;;;;;;43.33;12.13;;;6.00;99.90;;;;;;5036862;28;20127;-81
2020/12/21 07:52:02;;;;;;;43.42;12.18;;;6.00;99.90;;;;;;5030531;28;20072;-81
2020/12/21 07:54:28;;;;;;;;;;;6.00;99.90;;;;;;5007535;28;20040;-81
2020/12/21 07:57:05;;;;;;;42.05;10.35;;;6.00;99.90;;;;;;5008734;28;19950;-81
2020/12/21 07:59:30;;;;;;;33.67;10.52;;;6.00;99.90;;;;;;4993436;28;20044;-81
2020/12/21 08:02:00;;;;;;;41.17;10.88;;;6.10;99.90;;;;;;4990642;28;20113;-81
2020/12/21 08:04:27;;;;;;;45.08;12.00;;;6.00;99.90;;;;;;5004166;28;20022;-82
2020/12/21 08:06:53;;;;;;;29.65;10.70;;;6.10;99.90;;;;;;4987554;28;20038;-81
2020/12/21 08:09:19;;;;;;;43.35;10.30;;;6.10;99.90;;;;;;4987667;28;20060;-81
2020/12/21 08:11:45;;;;;;;35.55;9.23;;;6.10;99.90;;;;;;4990715;28;20061;-81
2020/12/21 08:14:19;;;;;;;26.95;9.63;;;6.20;99.90;;;;;;4973754;28;20038;-81
2020/12/21 08:16:46;;;;;;;43.97;9.98;;;6.20;99.90;;;;;;4997418;28;20897;-81
2020/12/21 08:19:20;;;;;;;38.00;9.32;;;6.20;99.90;;;;;;4985887;28;20049;-81
2020/12/21 08:21:48;;;;;;;32.72;9.27;;;6.20;99.90;;;;;;5002691;28;20029;-81
2020/12/21 08:24:14;;;;;;;27.23;8.88;;;6.10;99.90;;;;;;5006479;28;20029;-81
2020/12/21 08:26:40;;;;;;;29.50;8.13;;;6.10;99.90;;;;;;4988133;28;20030;-81
2020/12/21 08:29:06;;;;;;;32.78;8.48;;;6.10;99.90;;;;;;4993129;28;20036;-80
2020/12/21 08:31:41;;;;;;;21.92;9.07;;;6.10;99.90;;;;;;5009837;28;20504;-82
2020/12/21 08:34:07;;;;;;;24.60;7.40;;;6.10;99.90;;;;;;5021666;28;20491;-81
2020/12/21 08:36:34;;;;;;;26.23;7.85;;;6.10;99.90;;;;;;5027649;28;20076;-81
2020/12/21 08:39:19;;;;;;;40.25;9.20;;;6.10;99.90;;;;;;5023715;28;20103;-81
2020/12/21 08:41:53;;;;;;;35.00;9.52;;;6.10;99.90;;;;;;5028856;28;20061;-80
2020/12/21 08:44:23;;;;;;;30.33;8.55;;;6.10;99.90;;;;;;5005471;28;20156;-81
2020/12/21 08:46:52;;;;;;;20.00;7.43;;;6.10;99.90;;;;;;5020063;28;20034;-81
2020/12/21 08:49:21;;;;;;;38.70;6.55;;;6.10;99.90;;;;;;5008590;28;20076;-81
2020/12/21 08:51:48;;;;;;;34.85;7.15;;;6.10;99.90;;;;;;5027071;28;20617;-82
2020/12/21 08:54:14;;;;;;;29.85;7.00;;;6.20;99.90;;;;;;5021278;28;20042;-81
2020/12/21 08:56:46;;;;;;;32.42;10.38;;;6.20;99.90;;;;;;5021559;28;20079;-80
2020/12/21 08:59:17;;;;;;;37.42;8.88;;;6.20;99.90;;;;;;5024537;28;20045;-81
2020/12/21 09:01:44;;;;;;;26.50;8.00;;;6.20;99.90;;;;;;5005568;28;20462;-81
2020/12/21 09:04:10;;;;;;;35.75;6.57;;;6.30;99.90;;;;;;5010720;28;20113;-81
2020/12/21 09:06:36;;;;;;;31.52;8.07;;;6.30;99.90;;;;;;5050825;28;20028;-81
2020/12/21 09:09:03;;;;;;;27.60;6.53;;;6.30;99.90;;;;;;5043512;28;20565;-81
2020/12/21 09:11:29;;;;;;;26.98;6.57;;;6.30;99.90;;;;;;5042888;28;20025;-81
2020/12/21 09:13:55;;;;;;;23.52;6.25;;;6.40;99.90;;;;;;5043876;28;20464;-81
2020/12/21 09:16:23;;;;;;;28.48;6.15;;;6.40;99.90;;;;;;5027358;28;20108;-81
2020/12/21 09:18:49;;;;;;;26.67;6.22;;;6.40;99.90;;;;;;5024503;28;20131;-81
2020/12/21 09:21:28;;;;;;;27.60;7.07;;;6.50;99.90;;;;;;5031155;28;20033;-80
2020/12/21 09:23:57;;;;;;;19.10;5.28;;;6.50;99.90;;;;;;5050502;28;20037;-81
2020/12/21 09:26:23;;;;;;;32.30;5.97;;;6.50;99.90;;;;;;5020322;28;20042;-81
2020/12/21 09:28:50;;;;;;;16.40;6.70;;;6.60;99.90;;;;;;5024083;28;20046;-81
2020/12/21 09:31:17;;;;;;;39.20;6.28;;;6.60;99.90;;;;;;4990690;28;836835;-80
2020/12/21 09:33:45;;;;;;;35.83;7.03;;;6.70;99.90;;;;;;5020821;28;20119;-82
2020/12/21 09:36:13;;;;;;;25.73;5.70;;;6.80;99.90;;;;;;5021769;28;20030;-81
2020/12/21 09:38:38;;;;;;;23.60;5.43;;;6.80;99.90;;;;;;5003680;28;20025;-82
2020/12/21 09:41:04;;;;;;;27.58;5.60;;;6.90;99.90;;;;;;5022338;28;20030;-81
2020/12/21 09:43:31;;;;;;;25.70;5.60;;;7.00;99.90;;;;;;5026870;28;20036;-82
2020/12/21 09:45:57;;;;;;;14.88;4.45;;;7.00;99.90;;;;;;5022712;28;20034;-80
2020/12/21 09:48:22;;;;;;;20.88;5.95;;;7.10;99.90;;;;;;5004775;28;20802;-81
2020/12/21 09:50:51;;;;;;;17.75;5.50;;;7.10;99.90;;;;;;5021629;28;20068;-81
2020/12/21 09:53:16;;;;;;;16.80;4.35;;;7.30;99.90;;;;;;5022068;28;20477;-81
2020/12/21 09:55:45;;;;;;;18.23;4.60;;;7.80;99.90;;;;;;5017966;28;20037;-82
2020/12/21 09:58:11;;;;;;;23.88;3.88;;;8.40;99.90;;;;;;5040937;28;20080;-82
2020/12/21 10:00:39;;;;;;;22.45;4.38;;;9.10;99.90;;;;;;5041603;28;20715;-81
2020/12/21 10:03:07;;;;;;;18.60;4.30;;;9.30;99.90;;;;;;5040927;28;20069;-81
2020/12/21 10:05:33;;;;;;;17.42;4.25;;;9.80;99.90;;;;;;5047109;28;20029;-82
2020/12/21 10:07:59;;;;;;;11.15;3.33;;;9.80;99.90;;;;;;5001842;28;20034;-81
2020/12/21 10:10:24;;;;;;;18.30;5.20;;;10.00;99.90;;;;;;4967483;28;20046;-82
2020/12/21 10:12:50;;;;;;;16.52;3.60;;;10.30;99.90;;;;;;4986059;28;20140;-81
2020/12/21 10:15:18;;;;;;;15.43;3.78;;;10.70;99.90;;;;;;4982114;28;20025;-81
2020/12/21 10:17:46;;;;;;;17.27;3.85;;;10.90;99.90;;;;;;5002338;28;20141;-80
2020/12/21 10:20:11;;;;;;;13.82;3.58;;;10.60;99.90;;;;;;5000022;28;20057;-81
2020/12/21 10:22:38;;;;;;;20.15;5.72;;;10.60;99.90;;;;;;5002726;28;20046;-80
2020/12/21 10:25:05;;;;;;;19.52;3.22;;;10.70;99.90;;;;;;4999204;28;20030;-80
2020/12/21 10:27:35;;;;;;;18.98;4.78;;;10.60;99.90;;;;;;4985715;28;20092;-80
2020/12/21 10:30:02;;;;;;;23.45;3.85;;;10.90;99.90;;;;;;5002913;28;20026;-80
2020/12/21 10:32:28;;;;;;;13.38;3.38;;;10.90;99.90;;;;;;5004995;28;21789;-81
2020/12/21 10:34:53;;;;;;;16.00;3.70;;;10.90;99.90;;;;;;5001359;28;20045;-80
2020/12/21 10:37:19;;;;;;;24.63;4.38;;;11.00;99.90;;;;;;4995108;28;20038;-81
2020/12/21 10:39:44;;;;;;;19.73;3.42;;;11.10;99.90;;;;;;5036349;28;20052;-82
2020/12/21 10:42:10;;;;;;;24.30;3.83;;;11.00;99.90;;;;;;5042320;28;20087;-81
2020/12/21 10:44:36;;;;;;;15.18;3.25;;;11.20;99.90;;;;;;5042853;28;20029;-81
2020/12/21 10:47:02;;;;;;;26.02;4.45;;;11.20;99.90;;;;;;5024375;28;20555;-81
2020/12/21 10:49:29;;;;;;;17.55;3.75;;;11.20;99.90;;;;;;5044015;28;20039;-81
2020/12/21 10:51:55;;;;;;;20.23;3.75;;;11.70;99.90;;;;;;5030570;28;20048;-81
2020/12/21 10:54:21;;;;;;;9.18;3.35;;;11.50;99.90;;;;;;5028282;28;20031;-81
2020/12/21 10:56:51;;;;;;;11.35;3.40;;;11.40;99.90;;;;;;5030674;28;20096;-81
2020/12/21 10:59:17;;;;;;;18.38;3.10;;;11.10;99.90;;;;;;5022528;28;20032;-80
2020/12/21 11:01:46;;;;;;;18.52;2.97;;;11.20;99.90;;;;;;5041036;28;20374;-80
2020/12/21 11:04:14;;;;;;;21.38;4.20;;;11.30;99.90;;;;;;5044752;28;20076;-81
2020/12/21 11:06:39;;;;;;;13.35;2.90;;;11.20;99.90;;;;;;4985845;28;20026;-80
2020/12/21 11:09:06;;;;;;;7.85;2.97;;;10.90;99.90;;;;;;4969789;28;20149;-80
2020/12/21 11:11:38;;;;;;;16.73;2.78;;;10.50;99.90;;;;;;4988201;28;20415;-81
2020/12/21 11:14:04;;;;;;;20.52;3.65;;;10.10;99.90;;;;;;4971237;28;20038;-81
2020/12/21 11:16:31;;;;;;;11.02;3.10;;;9.60;99.90;;;;;;4970591;28;20038;-81
2020/12/21 11:18:56;;;;;;;18.38;4.57;;;9.80;99.90;;;;;;4986774;28;20115;-81
2020/12/21 11:21:22;;;;;;;22.00;3.83;;;10.30;99.90;;;;;;4984793;28;20475;-81
2020/12/21 11:23:47;;;;;;;16.02;2.85;;;10.40;99.90;;;;;;4974378;28;20113;-81
2020/12/21 11:26:15;;;;;;;18.30;3.50;;;10.70;99.90;;;;;;4987379;28;20065;-80
2020/12/21 11:28:41;;;;;;;15.10;3.45;;;10.50;99.90;;;;;;4987533;28;20174;-80
2020/12/21 11:31:08;;;;;;;20.30;3.60;;;10.50;99.90;;;;;;4986946;28;20089;-81
2020/12/21 11:33:33;;;;;;;20.92;3.63;;;10.30;99.90;;;;;;4992928;28;20059;-81
2020/12/21 11:35:59;;;;;;;13.63;3.17;;;10.10;99.90;;;;;;4987123;28;20030;-81
2020/12/21 11:38:25;;;;;;;22.45;3.92;;;10.20;99.90;;;;;;4991813;28;20121;-81
2020/12/21 11:40:51;;;;;;;18.17;3.63;;;10.10;99.90;;;;;;5007230;28;20038;-81
2020/12/21 11:43:17;;;;;;;19.38;3.70;;;10.20;99.90;;;;;;5003559;28;20076;-81
2020/12/21 11:45:44;;;;;;;19.40;4.18;;;9.90;99.90;;;;;;5004284;28;21575;-81
2020/12/21 11:48:10;;;;;;;13.20;3.00;;;9.80;99.90;;;;;;4996516;28;20128;-81
2020/12/21 11:50:36;;;;;;;113.50;40.60;;;9.60;99.90;;;;;;5035914;28;20036;-80
2020/12/21 11:53:03;;;;;;;27.33;4.10;;;9.70;99.90;;;;;;5065047;28;20042;-80
2020/12/21 11:55:29;;;;;;;23.45;3.78;;;9.50;99.90;;;;;;5047559;28;20139;-81
2020/12/21 11:57:54;;;;;;;17.80;3.90;;;9.50;99.90;;;;;;5047104;28;20076;-81
2020/12/21 12:00:21;;;;;;;32.03;4.40;;;9.50;99.90;;;;;;5027257;28;20088;-81
2020/12/21 12:02:47;;;;;;;39.38;4.82;;;9.50;99.90;;;;;;4993411;28;20139;-81
2020/12/21 12:05:13;;;;;;;16.63;4.05;;;9.30;99.90;;;;;;5007423;28;20443;-80
2020/12/21 12:07:39;;;;;;;14.95;3.33;;;9.20;99.90;;;;;;5005243;28;20032;-81
2020/12/21 12:10:06;;;;;;;16.15;3.55;;;9.10;99.90;;;;;;5019837;28;20401;-82
2020/12/21 12:12:33;;;;;;;31.42;3.33;;;9.00;99.90;;;;;;4994876;28;20052;-82
2020/12/21 12:14:58;;;;;;;25.83;4.40;;;9.00;99.90;;;;;;5008419;28;20029;-81
2020/12/21 12:17:24;;;;;;;21.73;5.00;;;9.00;99.90;;;;;;5018365;28;20545;-82
2020/12/21 12:19:50;;;;;;;22.42;4.03;;;9.00;99.90;;;;;;5022012;28;20034;-81
2020/12/21 12:22:16;;;;;;;23.30;4.10;;;9.00;99.90;;;;;;5007739;28;20032;-82
2020/12/21 12:24:43;;;;;;;18.50;3.25;;;8.90;99.90;;;;;;5007809;28;20021;-81
2020/12/21 12:27:09;;;;;;;12.82;3.30;;;8.90;99.90;;;;;;5021450;28;20037;-80
2020/12/21 12:29:34;;;;;;;22.88;4.32;;;8.90;99.90;;;;;;5003505;28;20489;-81
2020/12/21 12:32:00;;;;;;;28.85;3.65;;;8.90;99.90;;;;;;5036910;28;20047;-80
2020/12/21 12:34:26;;;;;;;15.40;3.53;;;9.00;99.90;;;;;;5050154;28;20027;-81
2020/12/21 12:36:53;;;;;;;23.02;3.58;;;8.90;99.90;;;;;;5048455;28;20020;-81
2020/12/21 12:39:18;;;;;;;13.80;4.43;;;8.80;99.90;;;;;;5048864;28;20060;-81
2020/12/21 12:41:44;;;;;;;17.77;4.43;;;8.90;99.90;;;;;;5028472;28;20061;-82
2020/12/21 12:44:10;;;;;;;14.98;3.83;;;8.80;99.90;;;;;;5002948;28;20056;-81